createdAt,value
2023-12-19T00:01:00.518Z,61.80
2023-12-19T00:03:27.807Z,61.67
2023-12-19T00:05:55.079Z,61.29
2023-12-19T00:08:21.977Z,60.92
2023-12-19T00:10:48.958Z,60.81
2023-12-19T00:13:15.843Z,60.28
2023-12-19T00:15:43.173Z,60.18
2023-12-19T00:18:10.234Z,60.40
2023-12-19T00:20:37.283Z,60.24
2023-12-19T00:23:04.427Z,60.19
2023-12-19T00:25:33.035Z,59.97
2023-12-19T00:28:00.410Z,60.20
2023-12-19T00:30:28.095Z,59.84
2023-12-19T00:32:55.151Z,60.15
2023-12-19T00:35:22.296Z,60.05
2023-12-19T00:37:49.137Z,60.05
2023-12-19T00:40:16.131Z,60.19
2023-12-19T00:42:43.720Z,60.54
2023-12-19T00:45:12.087Z,60.81
2023-12-19T00:47:40.533Z,60.20
2023-12-19T00:50:09.331Z,60.04
2023-12-19T00:52:36.373Z,59.72
2023-12-19T00:55:03.998Z,59.31
2023-12-19T00:57:31.081Z,58.96
2023-12-19T00:59:57.982Z,58.99
2023-12-19T01:02:24.938Z,59.06
2023-12-19T01:04:52.348Z,58.93
2023-12-19T01:07:19.291Z,58.73
2023-12-19T01:09:46.172Z,58.91
2023-12-19T01:12:13.871Z,59.09
2023-12-19T01:14:40.852Z,58.64
2023-12-19T01:17:07.841Z,58.84
2023-12-19T01:19:35.162Z,58.66
2023-12-19T01:22:02.237Z,58.32
2023-12-19T01:24:29.195Z,57.85
2023-12-19T01:26:56.685Z,58.08
2023-12-19T01:29:24.287Z,57.37
2023-12-19T01:31:51.139Z,57.62
2023-12-19T01:34:18.190Z,57.25
2023-12-19T01:36:56.606Z,57.40
2023-12-19T01:39:25.340Z,56.79
2023-12-19T01:41:53.041Z,56.65
2023-12-19T01:44:20.781Z,56.70
2023-12-19T01:46:48.389Z,56.61
2023-12-19T01:49:15.939Z,56.73
2023-12-19T01:51:43.301Z,56.54
2023-12-19T01:54:12.234Z,56.64
2023-12-19T01:56:39.981Z,56.54
2023-12-19T01:59:07.768Z,56.43
2023-12-19T02:01:36.446Z,56.39
2023-12-19T02:04:04.308Z,56.32
2023-12-19T02:06:34.933Z,56.52
2023-12-19T02:09:02.423Z,56.46
2023-12-19T02:11:30.044Z,56.26
2023-12-19T02:13:59.703Z,56.32
2023-12-19T02:16:27.968Z,56.27
2023-12-19T02:19:04.460Z,56.08
2023-12-19T02:21:32.034Z,56.15
2023-12-19T02:24:00.779Z,56.12
2023-12-19T02:26:28.524Z,56.01
2023-12-19T02:28:55.421Z,55.81
2023-12-19T02:31:22.936Z,55.62
2023-12-19T02:33:50.230Z,55.58
2023-12-19T02:36:18.038Z,55.47
2023-12-19T02:38:45.097Z,55.53
2023-12-19T02:41:12.110Z,55.13
2023-12-19T02:43:53.218Z,54.94
2023-12-19T02:46:23.439Z,54.66
2023-12-19T02:48:50.653Z,54.49
2023-12-19T02:51:20.723Z,54.17
2023-12-19T02:53:48.329Z,54.16
2023-12-19T02:56:15.193Z,54.12
2023-12-19T02:58:42.081Z,54.45
2023-12-19T03:01:09.455Z,54.30
2023-12-19T03:03:36.636Z,54.30
2023-12-19T03:06:03.740Z,54.12
2023-12-19T03:08:30.744Z,54.15
2023-12-19T03:10:59.802Z,54.17
2023-12-19T03:13:26.923Z,53.90
2023-12-19T03:15:54.266Z,54.21
2023-12-19T03:18:26.466Z,53.61
2023-12-19T03:20:53.851Z,53.41
2023-12-19T03:23:22.338Z,53.45
2023-12-19T03:25:49.872Z,53.05
2023-12-19T03:28:17.013Z,53.37
2023-12-19T03:30:44.050Z,53.22
2023-12-19T03:33:11.076Z,53.11
2023-12-19T03:35:38.198Z,53.08
2023-12-19T03:38:05.069Z,53.04
2023-12-19T03:40:31.976Z,52.94
2023-12-19T03:42:58.861Z,52.94
2023-12-19T03:45:26.128Z,52.70
2023-12-19T03:47:53.309Z,52.73
2023-12-19T03:50:20.444Z,52.51
2023-12-19T03:52:47.973Z,52.42
2023-12-19T03:55:14.819Z,52.32
2023-12-19T03:57:41.746Z,52.25
2023-12-19T04:00:10.262Z,52.26
2023-12-19T04:02:37.116Z,51.86
2023-12-19T04:05:04.618Z,51.43
2023-12-19T04:07:33.788Z,51.48
2023-12-19T04:10:01.986Z,51.42
2023-12-19T04:12:29.186Z,51.46
2023-12-19T04:14:56.097Z,51.24
2023-12-19T04:17:23.373Z,51.31
2023-12-19T04:19:50.468Z,51.71
2023-12-19T04:22:17.617Z,51.64
2023-12-19T04:24:44.610Z,51.36
2023-12-19T04:27:11.569Z,51.29
2023-12-19T04:29:40.218Z,51.02
2023-12-19T04:32:07.577Z,50.71
2023-12-19T04:34:34.627Z,50.87
2023-12-19T04:37:01.810Z,50.82
2023-12-19T04:39:28.745Z,51.02
2023-12-19T04:41:55.723Z,51.12
2023-12-19T04:44:23.500Z,50.86
2023-12-19T04:46:50.359Z,50.67
2023-12-19T04:49:17.295Z,51.08
2023-12-19T04:51:44.795Z,50.63
2023-12-19T04:54:11.789Z,50.77
2023-12-19T04:56:38.666Z,50.68
2023-12-19T04:59:06.711Z,50.59
2023-12-19T05:01:33.767Z,50.53
2023-12-19T05:04:01.301Z,50.62
2023-12-19T05:06:28.289Z,50.40
2023-12-19T05:08:55.228Z,50.30
2023-12-19T05:11:22.148Z,50.46
2023-12-19T05:13:48.999Z,50.54
2023-12-19T05:16:17.704Z,50.39
2023-12-19T05:18:46.397Z,50.50
2023-12-19T05:21:14.028Z,50.43
2023-12-19T05:23:41.904Z,50.39
2023-12-19T05:26:10.125Z,50.37
2023-12-19T05:28:40.784Z,50.27
2023-12-19T05:31:10.542Z,50.44
2023-12-19T05:33:38.073Z,50.66
2023-12-19T05:36:05.391Z,50.74
2023-12-19T05:38:34.092Z,50.73
2023-12-19T05:41:01.378Z,50.53
2023-12-19T05:43:29.086Z,50.28
2023-12-19T05:45:56.183Z,50.39
2023-12-19T05:48:24.657Z,50.29
2023-12-19T05:50:52.995Z,50.29
2023-12-19T05:53:19.907Z,50.45
2023-12-19T05:55:46.905Z,50.34
2023-12-19T05:58:14.703Z,50.63
2023-12-19T06:00:41.827Z,50.17
2023-12-19T06:03:10.648Z,50.23
2023-12-19T06:05:40.212Z,50.04
2023-12-19T06:08:08.526Z,50.04
2023-12-19T06:10:35.434Z,50.17
2023-12-19T06:13:02.500Z,50.34
2023-12-19T06:15:29.654Z,50.19
2023-12-19T06:17:56.553Z,50.08
2023-12-19T06:20:23.497Z,50.40
2023-12-19T06:22:50.664Z,50.07
2023-12-19T06:25:17.595Z,49.89
2023-12-19T06:27:45.416Z,49.68
2023-12-19T06:30:22.661Z,49.39
2023-12-19T06:32:54.990Z,49.25
2023-12-19T06:35:22.097Z,49.29
2023-12-19T06:37:49.162Z,49.67
2023-12-19T06:40:16.295Z,48.95
2023-12-19T06:42:43.522Z,48.82
2023-12-19T06:45:13.641Z,48.78
2023-12-19T06:47:40.804Z,48.65
2023-12-19T06:50:08.626Z,48.73
2023-12-19T06:52:35.637Z,48.55
2023-12-19T06:55:02.745Z,48.78
2023-12-19T06:57:30.109Z,48.85
2023-12-19T06:59:57.166Z,48.84
2023-12-19T07:02:24.053Z,48.80
2023-12-19T07:04:50.961Z,48.76
2023-12-19T07:07:18.254Z,48.70
2023-12-19T07:09:45.171Z,48.46
2023-12-19T07:12:13.148Z,48.47
2023-12-19T07:14:40.087Z,48.07
2023-12-19T07:17:07.146Z,48.25
2023-12-19T07:19:35.422Z,48.22
2023-12-19T07:22:02.546Z,48.18
2023-12-19T07:24:30.872Z,48.15
2023-12-19T07:26:58.827Z,48.35
2023-12-19T07:29:26.100Z,48.24
2023-12-19T07:31:53.474Z,48.37
2023-12-19T07:34:20.631Z,48.19
2023-12-19T07:36:47.798Z,48.29
2023-12-19T07:39:15.008Z,48.03
2023-12-19T07:41:42.127Z,48.28
2023-12-19T07:44:12.405Z,48.44
2023-12-19T07:46:42.053Z,48.29
2023-12-19T07:49:11.146Z,48.15
2023-12-19T07:51:38.392Z,48.08
2023-12-19T07:54:05.522Z,47.88
2023-12-19T07:56:32.391Z,48.06
2023-12-19T07:58:59.664Z,47.68
2023-12-19T08:01:26.972Z,47.81
2023-12-19T08:03:54.554Z,46.91
2023-12-19T08:06:21.570Z,46.68
2023-12-19T08:08:51.777Z,45.99
2023-12-19T08:11:18.926Z,45.88
2023-12-19T08:13:45.925Z,45.46
2023-12-19T08:16:12.993Z,45.17
2023-12-19T08:18:40.229Z,44.95
2023-12-19T08:21:07.601Z,44.70
2023-12-19T08:23:34.675Z,44.24
2023-12-19T08:26:01.610Z,43.42
2023-12-19T08:28:28.475Z,42.58
2023-12-19T08:30:55.494Z,42.25
2023-12-19T08:33:24.353Z,41.93
2023-12-19T08:35:51.835Z,40.84
2023-12-19T08:38:18.737Z,40.75
2023-12-19T08:40:46.892Z,40.34
2023-12-19T08:43:13.959Z,39.99
2023-12-19T08:45:40.884Z,39.54
2023-12-19T08:48:08.146Z,39.85
2023-12-19T08:50:35.744Z,40.02
2023-12-19T08:53:02.647Z,40.56
2023-12-19T08:55:31.616Z,40.63
2023-12-19T08:57:59.036Z,40.84
2023-12-19T09:00:26.077Z,40.81
2023-12-19T09:02:53.113Z,40.78
2023-12-19T09:05:20.698Z,40.82
2023-12-19T09:07:48.332Z,39.98
2023-12-19T09:10:16.612Z,39.25
2023-12-19T09:12:44.268Z,38.78
2023-12-19T09:15:11.991Z,38.84
2023-12-19T09:17:40.295Z,39.09
2023-12-19T09:20:09.573Z,39.52
2023-12-19T09:22:37.070Z,39.95
2023-12-19T09:25:04.638Z,40.42
2023-12-19T09:27:31.565Z,40.62
2023-12-19T09:29:58.769Z,41.01
2023-12-19T09:32:25.817Z,40.84
2023-12-19T09:34:52.869Z,40.88
2023-12-19T09:37:24.605Z,41.23
2023-12-19T09:39:54.127Z,41.00
2023-12-19T09:42:22.300Z,41.14
2023-12-19T09:44:49.712Z,40.98
2023-12-19T09:47:24.962Z,40.76
2023-12-19T09:49:55.443Z,40.57
2023-12-19T09:52:24.267Z,40.55
2023-12-19T09:54:52.915Z,40.68
2023-12-19T09:57:21.294Z,39.42
2023-12-19T09:59:54.807Z,39.30
2023-12-19T10:02:26.757Z,39.27
2023-12-19T10:04:54.492Z,39.14
2023-12-19T10:07:21.929Z,39.01
2023-12-19T10:09:56.518Z,38.92
2023-12-19T10:12:33.689Z,38.68
2023-12-19T10:15:15.323Z,38.44
2023-12-19T10:18:06.162Z,38.36
2023-12-19T10:20:33.585Z,38.18
2023-12-19T10:23:05.831Z,38.19
2023-12-19T10:25:42.303Z,38.52
2023-12-19T10:28:14.345Z,38.25
2023-12-19T10:30:41.998Z,38.09
2023-12-19T10:33:09.515Z,38.42
2023-12-19T10:35:41.143Z,38.13
2023-12-19T10:38:09.903Z,38.51
2023-12-19T10:40:38.541Z,36.95
2023-12-19T10:43:06.023Z,36.73
2023-12-19T10:45:34.294Z,37.02
2023-12-19T10:48:02.209Z,37.28
2023-12-19T10:50:30.804Z,37.49
2023-12-19T10:53:02.594Z,38.25
2023-12-19T10:55:38.469Z,38.02
2023-12-19T10:58:06.445Z,38.58
2023-12-19T11:00:38.923Z,39.29
2023-12-19T11:03:15.790Z,39.57
2023-12-19T11:05:47.136Z,39.63
2023-12-19T11:08:17.855Z,39.48
2023-12-19T11:11:04.825Z,38.61
2023-12-19T11:13:34.505Z,38.91
2023-12-19T11:16:11.346Z,38.72
2023-12-19T11:18:46.609Z,39.00
2023-12-19T11:21:45.710Z,38.85
2023-12-19T11:24:19.703Z,39.21
2023-12-19T11:26:52.796Z,39.46
2023-12-19T11:29:43.012Z,39.62
2023-12-19T11:32:30.271Z,40.45
2023-12-19T11:35:14.566Z,40.55
2023-12-19T11:37:45.384Z,40.59
2023-12-19T11:40:43.351Z,40.65
2023-12-19T11:43:10.287Z,40.55
2023-12-19T11:45:37.889Z,40.51
2023-12-19T11:48:40.983Z,40.15
2023-12-19T11:51:09.477Z,40.46
2023-12-19T11:53:37.176Z,39.72
2023-12-19T11:56:09.835Z,39.87
2023-12-19T11:58:37.986Z,38.66
2023-12-19T12:01:10.364Z,38.33
2023-12-19T12:03:38.981Z,37.80
2023-12-19T12:06:06.220Z,37.61
2023-12-19T12:08:33.502Z,37.67
2023-12-19T12:11:06.216Z,37.49
2023-12-19T12:13:35.360Z,37.77
2023-12-19T12:16:03.332Z,37.17
2023-12-19T12:18:32.383Z,36.41
2023-12-19T12:21:09.066Z,35.99
2023-12-19T12:23:36.943Z,35.15
2023-12-19T12:26:07.077Z,34.88
2023-12-19T12:28:36.005Z,34.90
2023-12-19T12:31:04.894Z,35.06
2023-12-19T12:33:33.237Z,35.91
2023-12-19T12:36:00.381Z,36.24
2023-12-19T12:38:27.874Z,37.01
2023-12-19T12:41:00.253Z,37.60
2023-12-19T12:43:37.985Z,38.38
2023-12-19T12:46:09.004Z,38.74
2023-12-19T12:48:38.820Z,38.22
2023-12-19T12:51:07.671Z,38.54
2023-12-19T12:53:35.836Z,38.93
2023-12-19T12:56:09.850Z,38.69
2023-12-19T12:58:37.397Z,38.68
2023-12-19T13:01:05.163Z,39.03
2023-12-19T13:03:33.970Z,38.83
2023-12-19T13:06:02.557Z,38.73
2023-12-19T13:08:30.756Z,38.61
2023-12-19T13:10:59.345Z,39.03
2023-12-19T13:13:26.406Z,39.11
2023-12-19T13:15:54.453Z,39.20
2023-12-19T13:18:22.921Z,39.06
2023-12-19T13:20:50.188Z,38.99
2023-12-19T13:23:17.147Z,38.93
2023-12-19T13:25:45.280Z,38.43
2023-12-19T13:28:12.497Z,38.05
2023-12-19T13:30:42.088Z,38.03
2023-12-19T13:33:10.070Z,37.27
2023-12-19T13:35:37.372Z,37.50
2023-12-19T13:38:04.981Z,37.33
2023-12-19T13:40:32.874Z,37.13
2023-12-19T13:43:00.598Z,37.29
2023-12-19T13:45:29.269Z,36.84
2023-12-19T13:48:00.173Z,37.30
2023-12-19T13:50:28.195Z,36.62
2023-12-19T13:52:55.693Z,36.80
2023-12-19T13:55:22.988Z,36.26
2023-12-19T13:57:49.877Z,36.34
2023-12-19T14:00:25.356Z,35.81
2023-12-19T14:02:56.535Z,35.73
2023-12-19T14:05:23.808Z,35.09
2023-12-19T14:07:50.636Z,35.47
2023-12-19T14:10:17.614Z,35.23
2023-12-19T14:12:47.507Z,35.08
2023-12-19T14:15:15.650Z,34.99
2023-12-19T14:17:44.335Z,34.70
2023-12-19T14:20:13.513Z,35.07
2023-12-19T14:22:41.207Z,34.81
2023-12-19T14:25:10.355Z,35.37
2023-12-19T14:27:38.494Z,35.69
2023-12-19T14:30:08.148Z,35.24
2023-12-19T14:32:37.299Z,35.41
2023-12-19T14:35:06.247Z,35.36
2023-12-19T14:37:35.036Z,35.24
2023-12-19T14:40:03.405Z,35.55
2023-12-19T14:42:31.822Z,35.75
2023-12-19T14:44:59.906Z,35.63
2023-12-19T14:47:27.198Z,35.65
2023-12-19T14:49:54.471Z,35.87
2023-12-19T14:52:21.707Z,35.87
2023-12-19T14:54:49.247Z,35.88
2023-12-19T14:57:16.400Z,36.23
2023-12-19T14:59:43.323Z,36.50
2023-12-19T15:02:10.356Z,36.74
2023-12-19T15:04:37.510Z,36.43
2023-12-19T15:07:05.849Z,36.91
2023-12-19T15:09:34.862Z,37.32
2023-12-19T15:12:03.874Z,37.43
2023-12-19T15:14:34.246Z,37.74
2023-12-19T15:17:01.652Z,37.74
2023-12-19T15:19:28.547Z,38.02
2023-12-19T15:21:55.539Z,38.14
2023-12-19T15:24:22.817Z,38.14
2023-12-19T15:26:50.149Z,38.40
2023-12-19T15:29:18.250Z,38.58
2023-12-19T15:31:46.382Z,39.07
2023-12-19T15:34:13.953Z,39.00
2023-12-19T15:36:41.073Z,39.05
2023-12-19T15:39:08.495Z,39.54
2023-12-19T15:41:35.647Z,39.54
2023-12-19T15:44:08.760Z,39.34
2023-12-19T15:46:41.085Z,39.45
2023-12-19T15:49:10.472Z,39.55
2023-12-19T15:51:38.123Z,39.69
2023-12-19T15:54:05.606Z,39.74
2023-12-19T15:56:33.835Z,39.45
2023-12-19T15:59:02.686Z,39.59
2023-12-19T16:01:30.251Z,39.17
2023-12-19T16:03:57.885Z,39.12
2023-12-19T16:06:27.341Z,39.38
2023-12-19T16:08:54.517Z,39.58
2023-12-19T16:11:24.923Z,40.05
2023-12-19T16:13:53.940Z,40.23
2023-12-19T16:16:20.988Z,40.51
2023-12-19T16:18:49.528Z,40.55
2023-12-19T16:21:19.185Z,40.64
2023-12-19T16:23:57.376Z,40.84
2023-12-19T16:26:32.518Z,40.92
2023-12-19T16:29:00.535Z,40.78
2023-12-19T16:31:29.565Z,40.78
2023-12-19T16:33:57.488Z,40.90
2023-12-19T16:36:24.933Z,40.99
2023-12-19T16:38:52.806Z,40.83
2023-12-19T16:41:23.438Z,41.19
2023-12-19T16:43:51.306Z,41.57
2023-12-19T16:46:23.086Z,41.78
2023-12-19T16:48:53.770Z,41.89
2023-12-19T16:51:21.132Z,41.66
2023-12-19T16:53:48.452Z,41.53
2023-12-19T16:56:15.842Z,41.66
2023-12-19T16:58:44.774Z,41.73
2023-12-19T17:01:17.323Z,41.25
2023-12-19T17:03:45.681Z,41.39
2023-12-19T17:06:12.696Z,41.33
2023-12-19T17:08:39.948Z,41.30
2023-12-19T17:11:08.565Z,41.21
2023-12-19T17:13:36.360Z,41.33
2023-12-19T17:16:03.575Z,41.50
2023-12-19T17:18:30.781Z,41.26
2023-12-19T17:20:57.981Z,41.17
2023-12-19T17:23:27.373Z,41.35
2023-12-19T17:25:57.908Z,41.07
2023-12-19T17:28:24.762Z,40.54
2023-12-19T17:30:51.784Z,40.64
2023-12-19T17:33:18.783Z,40.48
2023-12-19T17:35:45.895Z,40.69
2023-12-19T17:38:12.920Z,40.78
2023-12-19T17:40:39.783Z,40.81
2023-12-19T17:43:07.743Z,40.70
2023-12-19T17:45:34.797Z,40.53
2023-12-19T17:48:01.799Z,40.67
2023-12-19T17:50:30.067Z,40.85
2023-12-19T17:52:56.933Z,40.55
2023-12-19T17:55:23.989Z,40.47
2023-12-19T17:57:50.916Z,40.42
2023-12-19T18:00:18.280Z,40.49
2023-12-19T18:02:45.967Z,40.19
2023-12-19T18:05:13.292Z,40.32
2023-12-19T18:07:41.976Z,40.13
2023-12-19T18:10:11.867Z,40.28
2023-12-19T18:12:39.008Z,39.90
2023-12-19T18:15:08.042Z,39.92
2023-12-19T18:17:35.208Z,40.14
2023-12-19T18:20:02.613Z,40.25
2023-12-19T18:22:29.583Z,40.16
2023-12-19T18:24:56.585Z,40.22
2023-12-19T18:27:23.479Z,40.52
2023-12-19T18:29:50.338Z,40.99
2023-12-19T18:32:17.979Z,41.12
2023-12-19T18:34:52.559Z,41.05
2023-12-19T18:37:21.762Z,41.29
2023-12-19T18:39:48.809Z,41.33
2023-12-19T18:42:15.731Z,41.36
2023-12-19T18:44:42.882Z,41.14
2023-12-19T18:47:09.779Z,41.12
2023-12-19T18:49:37.162Z,41.38
2023-12-19T18:52:04.332Z,41.32
2023-12-19T18:54:31.429Z,41.35
2023-12-19T18:57:00.865Z,41.17
2023-12-19T18:59:27.865Z,41.28
2023-12-19T19:01:54.880Z,41.48
2023-12-19T19:04:23.047Z,41.19
2023-12-19T19:06:50.401Z,41.32
2023-12-19T19:09:17.755Z,41.23
2023-12-19T19:11:46.803Z,41.47
2023-12-19T19:14:14.901Z,41.52
2023-12-19T19:16:43.019Z,41.44
2023-12-19T19:19:10.064Z,41.48
2023-12-19T19:21:37.924Z,41.50
2023-12-19T19:24:05.168Z,41.46
2023-12-19T19:26:32.231Z,41.57
2023-12-19T19:29:01.206Z,41.51
2023-12-19T19:31:31.373Z,41.35
2023-12-19T19:33:58.426Z,41.61
2023-12-19T19:36:29.145Z,41.74
2023-12-19T19:38:56.623Z,41.95
2023-12-19T19:41:25.938Z,41.94
2023-12-19T19:43:55.800Z,42.15
2023-12-19T19:46:22.803Z,42.04
2023-12-19T19:48:50.162Z,42.22
2023-12-19T19:51:17.176Z,42.33
2023-12-19T19:53:45.157Z,42.19
2023-12-19T19:56:12.246Z,42.30
2023-12-19T19:58:40.161Z,42.32
2023-12-19T20:01:07.141Z,42.26
2023-12-19T20:03:34.495Z,42.01
2023-12-19T20:06:01.737Z,42.22
2023-12-19T20:08:31.875Z,42.38
2023-12-19T20:11:00.585Z,42.68
2023-12-19T20:13:27.998Z,42.51
2023-12-19T20:15:55.230Z,42.55
2023-12-19T20:18:22.295Z,42.47
2023-12-19T20:20:49.613Z,42.82
2023-12-19T20:23:16.624Z,42.71
2023-12-19T20:25:44.754Z,43.16
2023-12-19T20:28:12.036Z,42.89
2023-12-19T20:30:40.225Z,43.00
2023-12-19T20:33:07.540Z,42.94
2023-12-19T20:35:38.005Z,42.89
2023-12-19T20:38:04.994Z,42.37
2023-12-19T20:40:34.181Z,42.59
2023-12-19T20:43:01.131Z,42.63
2023-12-19T20:45:28.524Z,42.50
2023-12-19T20:47:56.299Z,42.38
2023-12-19T20:50:23.343Z,42.41
2023-12-19T20:52:56.681Z,42.25
2023-12-19T20:55:25.585Z,42.35
2023-12-19T20:57:53.948Z,42.39
2023-12-19T21:00:23.566Z,42.59
2023-12-19T21:02:52.072Z,42.62
2023-12-19T21:05:20.556Z,42.72
2023-12-19T21:07:49.683Z,42.77
2023-12-19T21:10:17.405Z,42.84
2023-12-19T21:12:44.992Z,42.98
2023-12-19T21:15:13.025Z,42.92
2023-12-19T21:17:40.026Z,42.86
2023-12-19T21:20:07.858Z,42.96
2023-12-19T21:22:34.781Z,42.92
2023-12-19T21:25:01.669Z,42.94
2023-12-19T21:27:30.386Z,43.08
2023-12-19T21:29:57.304Z,43.14
2023-12-19T21:32:24.544Z,43.22
2023-12-19T21:34:53.024Z,43.33
2023-12-19T21:37:20.297Z,43.27
2023-12-19T21:39:47.377Z,43.40
2023-12-19T21:42:14.266Z,43.31
2023-12-19T21:44:41.629Z,43.32
2023-12-19T21:47:08.812Z,42.98
2023-12-19T21:49:38.796Z,43.00
2023-12-19T21:52:07.744Z,43.16
2023-12-19T21:54:35.213Z,43.26
2023-12-19T21:57:03.009Z,43.21
2023-12-19T21:59:30.402Z,43.04
2023-12-19T22:01:58.774Z,43.39
2023-12-19T22:04:26.208Z,43.36
2023-12-19T22:06:53.683Z,43.18
2023-12-19T22:09:20.570Z,43.38
2023-12-19T22:11:48.042Z,43.26
2023-12-19T22:14:30.448Z,43.35
2023-12-19T22:16:57.351Z,43.05
2023-12-19T22:19:24.438Z,42.68
2023-12-19T22:21:51.633Z,42.99
2023-12-19T22:24:18.666Z,42.99
2023-12-19T22:26:45.588Z,42.44
2023-12-19T22:29:12.445Z,42.53
2023-12-19T22:31:39.435Z,42.38
2023-12-19T22:34:06.494Z,42.06
2023-12-19T22:36:33.643Z,42.03
2023-12-19T22:39:00.699Z,42.23
2023-12-19T22:41:27.720Z,41.83
2023-12-19T22:43:54.639Z,41.87
2023-12-19T22:46:21.580Z,41.84
2023-12-19T22:48:48.571Z,42.01
2023-12-19T22:51:15.529Z,42.11
2023-12-19T22:53:42.337Z,42.11
2023-12-19T22:56:18.243Z,42.01
2023-12-19T22:58:45.223Z,42.07
2023-12-19T23:01:21.657Z,41.78
2023-12-19T23:03:49.556Z,41.44
2023-12-19T23:06:20.925Z,41.23
2023-12-19T23:08:49.042Z,41.01
2023-12-19T23:11:16.006Z,41.01
2023-12-19T23:13:43.637Z,41.06
2023-12-19T23:16:10.948Z,41.11
2023-12-19T23:18:40.607Z,40.74
2023-12-19T23:21:09.060Z,40.82
2023-12-19T23:23:36.020Z,40.71
2023-12-19T23:26:03.053Z,40.70
2023-12-19T23:28:30.655Z,40.93
2023-12-19T23:30:57.633Z,40.95
2023-12-19T23:33:24.645Z,40.56
2023-12-19T23:35:51.731Z,40.72
2023-12-19T23:38:18.789Z,40.75
2023-12-19T23:40:45.739Z,40.47
2023-12-19T23:43:12.959Z,40.54
2023-12-19T23:45:39.856Z,40.30
2023-12-19T23:48:07.347Z,39.82
2023-12-19T23:50:36.061Z,40.18
2023-12-19T23:53:03.143Z,40.88
2023-12-19T23:55:30.049Z,40.83
2023-12-19T23:57:56.960Z,40.92
